createdAt,value
2019-01-13T00:03:23.625Z,8.80
2019-01-13T00:05:58.469Z,8.60
2019-01-13T00:08:31.759Z,8.40
2019-01-13T00:13:40.553Z,8.80
2019-01-13T00:16:11.274Z,9.00
2019-01-13T00:18:43.304Z,9.00
2019-01-13T00:21:21.930Z,9.20
2019-01-13T00:23:51.710Z,8.70
2019-01-13T00:26:55.328Z,8.30
2019-01-13T00:29:28.154Z,8.50
2019-01-13T00:31:59.671Z,8.10
2019-01-13T00:35:16.914Z,8.10
2019-01-13T00:37:47.944Z,8.20
2019-01-13T00:40:18.751Z,8.50
2019-01-13T00:46:30.166Z,8.90
2019-01-13T00:49:03.192Z,9.00
2019-01-13T00:51:37.248Z,8.90
2019-01-13T00:54:43.591Z,9.00
2019-01-13T00:57:14.983Z,7.20
2019-01-13T00:59:47.075Z,8.90
2019-01-13T01:02:28.773Z,8.80
2019-01-13T01:05:02.056Z,8.50
2019-01-13T01:07:52.736Z,8.40
2019-01-13T01:10:28.373Z,8.70
2019-01-13T01:13:00.737Z,8.80
2019-01-13T01:15:32.798Z,8.90
2019-01-13T01:18:04.207Z,9.00
2019-01-13T01:20:40.517Z,8.80
2019-01-13T01:23:13.275Z,9.00
2019-01-13T01:25:44.327Z,9.00
2019-01-13T01:28:59.221Z,9.70
2019-01-13T01:31:31.493Z,9.20
2019-01-13T01:34:05.166Z,9.10
2019-01-13T01:36:44.325Z,9.00
2019-01-13T01:39:16.156Z,9.00
2019-01-13T01:41:48.730Z,9.00
2019-01-13T01:45:04.001Z,8.80
2019-01-13T01:47:35.761Z,8.90
2019-01-13T01:50:09.608Z,8.80
2019-01-13T01:52:51.521Z,8.70
2019-01-13T01:55:23.534Z,8.90
2019-01-13T01:57:56.451Z,9.20
2019-01-13T02:01:09.170Z,9.30
2019-01-13T02:03:39.756Z,9.10
2019-01-13T02:06:13.243Z,9.40
2019-01-13T02:09:03.038Z,9.50
2019-01-13T02:11:35.252Z,9.30
2019-01-13T02:14:11.453Z,9.30
2019-01-13T02:16:44.208Z,9.50
2019-01-13T02:19:15.484Z,9.00
2019-01-13T02:21:52.063Z,8.90
2019-01-13T02:24:54.838Z,8.60
2019-01-13T02:27:30.213Z,9.00
2019-01-13T02:30:03.540Z,8.80
2019-01-13T02:32:40.862Z,9.20
2019-01-13T02:35:13.407Z,9.30
2019-01-13T02:38:20.613Z,9.50
2019-01-13T02:40:55.250Z,9.40
2019-01-13T02:43:26.963Z,9.60
2019-01-13T02:46:40.119Z,9.30
2019-01-13T02:49:16.721Z,9.60
2019-01-13T02:54:50.174Z,9.10
2019-01-13T03:00:24.874Z,8.60
2019-01-13T03:05:47.206Z,8.90
2019-01-13T03:08:18.654Z,9.20
2019-01-13T03:10:51.591Z,9.30
2019-01-13T03:13:26.779Z,9.40
2019-01-13T03:16:36.999Z,9.40
2019-01-13T03:19:09.972Z,9.00
2019-01-13T03:21:42.871Z,9.20
2019-01-13T03:24:15.039Z,9.20
2019-01-13T03:26:51.073Z,9.40
2019-01-13T03:29:24.369Z,9.60
2019-01-13T03:32:08.039Z,9.80
2019-01-13T03:34:45.543Z,9.20
2019-01-13T03:37:55.961Z,8.80
2019-01-13T03:40:27.137Z,8.90
2019-01-13T03:42:59.909Z,9.50
2019-01-13T03:45:32.679Z,9.60
2019-01-13T03:48:10.458Z,9.60
2019-01-13T03:50:43.564Z,9.60
2019-01-13T03:53:49.692Z,9.30
2019-01-13T03:56:28.429Z,9.50
2019-01-13T03:59:02.479Z,9.60
2019-01-13T04:01:36.059Z,9.70
2019-01-13T04:04:12.128Z,9.30
2019-01-13T04:06:50.078Z,9.40
2019-01-13T04:09:25.168Z,9.40
2019-01-13T04:12:02.681Z,9.40
2019-01-13T04:14:42.429Z,9.40
2019-01-13T04:17:19.285Z,9.30
2019-01-13T04:19:57.037Z,9.30
2019-01-13T04:22:31.337Z,9.30
2019-01-13T04:25:06.127Z,8.50
2019-01-13T04:27:41.660Z,9.30
2019-01-13T04:30:17.871Z,9.50
2019-01-13T04:32:54.067Z,9.50
2019-01-13T04:35:29.851Z,9.60
2019-01-13T04:38:01.150Z,9.30
2019-01-13T04:40:35.208Z,9.20
2019-01-13T04:43:07.163Z,9.30
2019-01-13T04:45:42.424Z,9.00
2019-01-13T04:48:16.684Z,9.30
2019-01-13T04:50:50.826Z,9.40
2019-01-13T04:53:29.040Z,9.40
2019-01-13T04:56:02.312Z,9.70
2019-01-13T04:58:37.130Z,9.60
2019-01-13T05:01:14.015Z,9.50
2019-01-13T05:03:51.071Z,9.40
2019-01-13T05:06:28.613Z,9.20
2019-01-13T05:09:02.151Z,9.20
2019-01-13T05:11:36.967Z,9.20
2019-01-13T05:14:14.113Z,9.40
2019-01-13T05:16:47.989Z,9.60
2019-01-13T05:19:25.720Z,9.70
2019-01-13T05:21:57.618Z,9.60
2019-01-13T05:24:37.578Z,9.50
2019-01-13T05:27:09.558Z,9.40
2019-01-13T05:29:44.055Z,9.40
2019-01-13T05:32:19.258Z,9.70
2019-01-13T05:35:04.895Z,9.40
2019-01-13T05:37:38.006Z,9.20
2019-01-13T05:40:29.521Z,9.30
2019-01-13T05:43:02.759Z,9.40
2019-01-13T05:45:39.634Z,9.70
2019-01-13T05:48:17.474Z,9.60
2019-01-13T05:50:58.753Z,9.60
2019-01-13T05:53:30.386Z,9.60
2019-01-13T05:56:05.888Z,9.60
2019-01-13T05:58:37.580Z,9.60
2019-01-13T06:01:10.632Z,9.20
2019-01-13T06:03:43.313Z,9.80
2019-01-13T06:06:14.346Z,10.10
2019-01-13T06:08:47.947Z,10.20
2019-01-13T06:11:23.482Z,10.10
2019-01-13T06:13:56.000Z,10.10
2019-01-13T06:16:28.247Z,10.20
2019-01-13T06:19:01.746Z,10.30
2019-01-13T06:21:37.083Z,10.30
2019-01-13T06:24:14.206Z,10.20
2019-01-13T06:26:46.436Z,10.20
2019-01-13T06:29:19.312Z,10.40
2019-01-13T06:31:56.235Z,10.40
2019-01-13T06:34:24.809Z,10.40
2019-01-13T06:36:55.732Z,10.70
2019-01-13T06:39:30.657Z,10.70
2019-01-13T06:42:07.816Z,10.20
2019-01-13T06:44:40.327Z,10.10
2019-01-13T06:47:21.805Z,9.90
2019-01-13T06:49:54.635Z,11.70
2019-01-13T06:52:31.543Z,10.20
2019-01-13T06:55:06.764Z,10.00
2019-01-13T06:57:40.421Z,9.70
2019-01-13T07:00:20.512Z,9.70
2019-01-13T07:02:53.048Z,9.80
2019-01-13T07:05:26.414Z,9.80
2019-01-13T07:07:59.854Z,9.20
2019-01-13T07:10:31.317Z,9.30
2019-01-13T07:13:06.701Z,9.60
2019-01-13T07:15:43.250Z,8.80
2019-01-13T07:18:17.676Z,9.50
2019-01-13T07:20:53.444Z,9.40
2019-01-13T07:23:25.284Z,9.70
2019-01-13T07:26:02.637Z,9.80
2019-01-13T07:28:42.767Z,10.00
2019-01-13T07:31:16.625Z,9.80
2019-01-13T07:33:57.014Z,9.60
2019-01-13T07:36:27.935Z,9.60
2019-01-13T07:39:02.894Z,9.90
2019-01-13T07:41:38.214Z,9.70
2019-01-13T07:44:13.984Z,9.60
2019-01-13T07:46:45.903Z,9.80
2019-01-13T07:49:20.727Z,9.80
2019-01-13T07:51:54.198Z,9.80
2019-01-13T07:54:33.188Z,9.60
2019-01-13T07:57:06.490Z,9.50
2019-01-13T07:59:38.791Z,9.50
2019-01-13T08:02:19.138Z,9.60
2019-01-13T08:05:12.238Z,9.70
2019-01-13T08:07:35.749Z,10.00
2019-01-13T08:10:12.053Z,10.20
2019-01-13T08:12:44.580Z,9.90
2019-01-13T08:15:22.684Z,10.00
2019-01-13T08:17:59.292Z,9.80
2019-01-13T08:20:38.224Z,9.80
2019-01-13T08:23:11.718Z,9.70
2019-01-13T08:25:41.944Z,9.60
2019-01-13T08:28:15.367Z,9.60
2019-01-13T08:30:51.729Z,9.80
2019-01-13T08:33:33.920Z,10.20
2019-01-13T08:36:04.574Z,9.80
2019-01-13T08:38:39.223Z,10.10
2019-01-13T08:41:15.827Z,10.10
2019-01-13T08:43:51.269Z,10.10
2019-01-13T08:46:34.413Z,9.70
2019-01-13T08:49:10.693Z,9.70
2019-01-13T08:51:48.342Z,10.00
2019-01-13T08:54:23.605Z,10.30
2019-01-13T08:57:02.621Z,10.40
2019-01-13T08:59:35.922Z,10.30
2019-01-13T09:02:08.211Z,10.30
2019-01-13T09:04:41.424Z,10.20
2019-01-13T09:07:11.643Z,10.80
2019-01-13T09:09:46.750Z,9.70
2019-01-13T09:12:41.909Z,9.80
2019-01-13T09:15:18.809Z,9.70
2019-01-13T09:17:47.795Z,9.90
2019-01-13T09:20:24.621Z,10.00
2019-01-13T09:23:08.671Z,10.30
2019-01-13T09:25:44.832Z,10.30
2019-01-13T09:28:22.562Z,10.40
2019-01-13T09:30:56.138Z,10.40
2019-01-13T09:33:27.048Z,8.90
2019-01-13T09:36:01.380Z,10.40
2019-01-13T09:38:36.751Z,10.40
2019-01-13T09:41:19.807Z,10.40
2019-01-13T09:43:50.505Z,10.40
2019-01-13T09:46:26.931Z,10.60
2019-01-13T09:49:00.848Z,10.40
2019-01-13T09:51:30.892Z,10.10
2019-01-13T09:54:04.666Z,10.60
2019-01-13T09:56:38.337Z,10.70
2019-01-13T09:59:18.197Z,11.50
2019-01-13T10:01:47.863Z,10.70
2019-01-13T10:04:21.909Z,10.70
2019-01-13T10:06:56.367Z,10.90
2019-01-13T10:09:29.548Z,10.60
2019-01-13T10:12:02.695Z,10.60
2019-01-13T10:14:36.938Z,10.50
2019-01-13T10:17:12.594Z,10.50
2019-01-13T10:19:52.062Z,10.50
2019-01-13T10:22:27.165Z,10.20
2019-01-13T10:25:01.232Z,10.10
2019-01-13T10:27:40.411Z,9.90
2019-01-13T10:30:23.905Z,9.90
2019-01-13T10:33:05.259Z,11.70
2019-01-13T10:35:39.763Z,9.80
2019-01-13T10:38:12.527Z,9.90
2019-01-13T10:40:48.498Z,10.00
2019-01-13T10:43:19.189Z,10.10
2019-01-13T10:45:50.574Z,10.30
2019-01-13T10:48:22.525Z,10.00
2019-01-13T10:50:51.505Z,10.20
2019-01-13T10:53:22.801Z,10.40
2019-01-13T10:55:55.528Z,10.30
2019-01-13T10:58:32.861Z,10.40
2019-01-13T11:01:03.417Z,10.70
2019-01-13T11:03:39.769Z,10.60
2019-01-13T11:06:14.616Z,10.80
2019-01-13T11:09:02.244Z,11.00
2019-01-13T11:11:36.822Z,10.70
2019-01-13T11:14:06.036Z,12.60
2019-01-13T11:16:38.649Z,10.80
2019-01-13T11:19:08.529Z,10.80
2019-01-13T11:21:37.656Z,10.80
2019-01-13T11:24:09.153Z,10.80
2019-01-13T11:26:40.040Z,10.60
2019-01-13T11:29:12.362Z,10.30
2019-01-13T11:31:43.161Z,10.40
2019-01-13T11:34:17.477Z,10.00
2019-01-13T11:36:49.825Z,10.00
2019-01-13T11:39:19.792Z,10.20
2019-01-13T11:41:48.748Z,10.30
2019-01-13T11:44:19.290Z,10.30
2019-01-13T11:46:50.623Z,10.40
2019-01-13T11:49:19.552Z,10.40
2019-01-13T11:51:50.993Z,10.50
2019-01-13T11:54:19.925Z,10.60
2019-01-13T11:56:51.705Z,10.40
2019-01-13T11:59:24.406Z,10.50
2019-01-13T12:01:53.364Z,10.90
2019-01-13T12:04:29.446Z,12.20
2019-01-13T12:06:56.458Z,10.50
2019-01-13T12:09:26.810Z,10.40
2019-01-13T12:11:56.207Z,10.20
2019-01-13T12:14:25.432Z,10.00
2019-01-13T12:16:54.463Z,10.20
2019-01-13T12:19:23.328Z,10.10
2019-01-13T12:21:56.006Z,10.50
2019-01-13T12:24:25.056Z,10.80
2019-01-13T12:27:00.081Z,10.70
2019-01-13T12:29:33.413Z,10.70
2019-01-13T12:32:03.871Z,10.80
2019-01-13T12:34:32.794Z,10.80
2019-01-13T12:37:01.710Z,10.70
2019-01-13T12:39:33.670Z,10.80
2019-01-13T12:42:06.765Z,10.60
2019-01-13T12:44:36.096Z,10.50
2019-01-13T12:49:55.702Z,10.30
2019-01-13T12:52:24.622Z,10.40
2019-01-13T12:54:56.730Z,12.00
2019-01-13T12:57:25.960Z,10.90
2019-01-13T12:59:58.804Z,11.00
2019-01-13T13:02:28.563Z,10.50
2019-01-13T13:05:02.374Z,10.40
2019-01-13T13:07:33.020Z,10.30
2019-01-13T13:10:03.992Z,10.30
2019-01-13T13:12:39.096Z,10.10
2019-01-13T13:15:13.258Z,10.50
2019-01-13T13:17:43.191Z,11.80
2019-01-13T13:20:26.791Z,10.50
2019-01-13T13:22:55.732Z,10.40
2019-01-13T13:25:31.860Z,10.40
2019-01-13T13:28:03.336Z,10.50
2019-01-13T13:30:32.301Z,10.50
2019-01-13T13:33:02.974Z,10.50
2019-01-13T13:35:39.618Z,10.30
2019-01-13T13:38:08.563Z,10.20
2019-01-13T13:40:38.042Z,10.40
2019-01-13T13:43:06.899Z,10.40
2019-01-13T13:45:40.207Z,10.50
2019-01-13T13:48:07.072Z,11.50
2019-01-13T13:50:38.997Z,10.60
2019-01-13T13:53:08.233Z,10.50
2019-01-13T13:55:37.444Z,10.40
2019-01-13T13:58:16.306Z,10.50
2019-01-13T14:00:47.075Z,10.30
2019-01-13T14:06:01.736Z,10.70
2019-01-13T14:08:31.030Z,10.50
2019-01-13T14:11:13.578Z,10.70
2019-01-13T14:13:57.567Z,10.80
2019-01-13T14:16:29.137Z,10.40
2019-01-13T14:18:58.283Z,11.50
2019-01-13T14:21:28.856Z,10.70
2019-01-13T14:24:02.335Z,10.50
2019-01-13T14:26:37.323Z,10.30
2019-01-13T14:29:10.762Z,10.30
2019-01-13T14:31:44.238Z,10.60
2019-01-13T14:34:16.826Z,10.40
2019-01-13T14:36:46.300Z,10.20
2019-01-13T14:39:17.753Z,10.50
2019-01-13T14:41:46.763Z,10.60
2019-01-13T14:44:21.120Z,10.40
2019-01-13T14:46:52.917Z,10.50
2019-01-13T14:49:22.213Z,10.30
2019-01-13T14:51:55.784Z,10.60
2019-01-13T14:54:24.726Z,10.70
2019-01-13T14:57:02.924Z,10.60
2019-01-13T14:59:27.768Z,10.70
2019-01-13T15:01:57.244Z,10.90
2019-01-13T15:04:26.413Z,10.60
2019-01-13T15:07:17.539Z,10.80
2019-01-13T15:09:49.428Z,10.80
2019-01-13T15:12:22.852Z,10.90
2019-01-13T15:14:52.821Z,9.20
2019-01-13T15:17:21.784Z,10.70
2019-01-13T15:19:52.224Z,10.70
2019-01-13T15:22:21.243Z,10.50
2019-01-13T15:24:50.198Z,10.30
2019-01-13T15:27:19.374Z,11.10
2019-01-13T15:29:49.939Z,10.30
2019-01-13T15:32:29.618Z,10.10
2019-01-13T15:34:58.671Z,10.10
2019-01-13T15:37:27.597Z,10.00
2019-01-13T15:39:56.499Z,10.10
2019-01-13T15:42:31.444Z,10.40
2019-01-13T15:45:03.095Z,10.50
2019-01-13T15:47:35.879Z,10.50
2019-01-13T15:50:11.903Z,10.50
2019-01-13T15:52:40.832Z,10.50
2019-01-13T15:55:10.287Z,10.20
2019-01-13T15:57:41.747Z,10.10
2019-01-13T16:00:15.987Z,10.40
2019-01-13T16:02:46.597Z,10.10
2019-01-13T16:05:18.820Z,10.20
2019-01-13T16:07:48.386Z,10.20
2019-01-13T16:10:29.442Z,10.10
2019-01-13T16:13:05.702Z,9.90
2019-01-13T16:15:35.748Z,9.60
2019-01-13T16:18:10.019Z,9.30
2019-01-13T16:20:42.694Z,9.60
2019-01-13T16:23:14.516Z,9.40
2019-01-13T16:25:54.941Z,9.40
2019-01-13T16:28:30.742Z,9.70
2019-01-13T16:31:03.101Z,9.90
2019-01-13T16:33:35.705Z,9.90
2019-01-13T16:39:07.673Z,9.90
2019-01-13T16:41:42.191Z,9.90
2019-01-13T16:44:16.309Z,10.00
2019-01-13T16:46:53.614Z,10.20
2019-01-13T16:49:24.900Z,10.10
2019-01-13T16:52:00.161Z,10.00
2019-01-13T16:54:48.984Z,9.90
2019-01-13T16:57:22.272Z,10.00
2019-01-13T17:00:05.207Z,10.30
2019-01-13T17:02:33.222Z,9.30
2019-01-13T17:05:03.197Z,10.20
2019-01-13T17:07:38.911Z,10.00
2019-01-13T17:10:14.321Z,9.80
2019-01-13T17:12:45.982Z,10.00
2019-01-13T17:16:01.258Z,10.00
2019-01-13T17:18:34.307Z,10.00
2019-01-13T17:21:07.647Z,10.10
2019-01-13T17:23:39.380Z,10.10
2019-01-13T17:26:11.047Z,9.90
2019-01-13T17:29:22.422Z,9.90
2019-01-13T17:31:52.328Z,9.80
2019-01-13T17:34:21.227Z,9.90
2019-01-13T17:37:28.502Z,9.90
2019-01-13T17:39:57.549Z,9.90
2019-01-13T17:42:27.315Z,9.80
2019-01-13T17:45:02.415Z,9.80
2019-01-13T17:47:35.297Z,9.60
2019-01-13T17:50:38.811Z,9.50
2019-01-13T17:53:08.445Z,9.60
2019-01-13T17:55:37.394Z,9.60
2019-01-13T17:58:15.119Z,9.90
2019-01-13T18:00:50.015Z,10.00
2019-01-13T18:03:21.878Z,10.00
2019-01-13T18:06:01.875Z,10.20
2019-01-13T18:08:32.050Z,9.90
2019-01-13T18:11:41.998Z,10.10
2019-01-13T18:14:10.915Z,10.20
2019-01-13T18:19:42.229Z,9.90
2019-01-13T18:22:13.408Z,9.90
2019-01-13T18:24:46.471Z,9.80
2019-01-13T18:27:25.832Z,10.00
2019-01-13T18:29:54.724Z,10.00
2019-01-13T18:32:31.292Z,10.00
2019-01-13T18:35:00.229Z,11.70
2019-01-13T18:38:20.378Z,10.10
2019-01-13T18:40:49.246Z,10.10
2019-01-13T18:43:18.240Z,9.70
2019-01-13T18:46:31.772Z,9.70
2019-01-13T18:49:04.207Z,9.50
2019-01-13T18:51:34.625Z,9.50
2019-01-13T18:54:03.574Z,9.40
2019-01-13T18:56:32.749Z,9.50
2019-01-13T18:59:49.264Z,9.40
2019-01-13T19:02:19.520Z,9.60
2019-01-13T19:04:48.447Z,9.70
2019-01-13T19:08:08.582Z,9.80
2019-01-13T19:10:40.449Z,9.90
2019-01-13T19:13:29.176Z,9.80
2019-01-13T19:16:06.016Z,9.80
2019-01-13T19:18:37.931Z,9.70
2019-01-13T19:21:32.111Z,9.70
2019-01-13T19:24:04.016Z,9.80
2019-01-13T19:26:32.920Z,9.70
2019-01-13T19:29:03.262Z,9.70
2019-01-13T19:31:47.353Z,9.80
2019-01-13T19:34:19.246Z,9.70
2019-01-13T19:36:49.255Z,9.60
2019-01-13T19:39:21.353Z,9.80
2019-01-13T19:41:52.961Z,9.70
2019-01-13T19:44:59.820Z,9.70
2019-01-13T19:47:33.189Z,9.70
2019-01-13T19:50:03.633Z,9.60
2019-01-13T19:52:34.259Z,9.20
2019-01-13T19:55:03.489Z,9.30
2019-01-13T19:57:33.953Z,9.50
2019-01-13T20:00:03.173Z,9.60
2019-01-13T20:02:40.115Z,9.70
2019-01-13T20:05:42.235Z,9.70
2019-01-13T20:08:12.159Z,9.60
2019-01-13T20:10:42.014Z,9.60
2019-01-13T20:14:04.431Z,9.50
2019-01-13T20:16:35.724Z,9.60
2019-01-13T20:19:06.370Z,9.60
2019-01-13T20:21:43.898Z,9.50
2019-01-13T20:24:18.363Z,9.60
2019-01-13T20:26:47.391Z,9.80
2019-01-13T20:29:22.593Z,9.40
2019-01-13T20:32:15.117Z,9.50
2019-01-13T20:35:33.751Z,9.60
2019-01-13T20:38:02.711Z,9.50
2019-01-13T20:43:25.297Z,9.50
2019-01-13T20:48:47.369Z,7.60
2019-01-13T20:51:17.443Z,7.00
2019-01-13T20:54:41.320Z,6.90
2019-01-13T20:57:11.076Z,7.00
2019-01-13T20:59:40.158Z,7.00
2019-01-13T21:02:09.159Z,7.00
2019-01-13T21:04:38.083Z,7.00
2019-01-13T21:07:54.539Z,7.00
2019-01-13T21:10:28.158Z,6.70
2019-01-13T21:12:59.284Z,6.70
2019-01-13T21:16:26.078Z,6.60
2019-01-13T21:18:55.006Z,6.80
2019-01-13T21:21:28.311Z,6.70
2019-01-13T21:24:04.955Z,6.90
2019-01-13T21:26:36.014Z,7.20
2019-01-13T21:29:31.752Z,7.40
2019-01-13T21:32:00.719Z,7.50
2019-01-13T21:34:31.135Z,7.50
2019-01-13T21:37:36.493Z,7.60
2019-01-13T21:40:08.297Z,7.90
2019-01-13T21:42:39.305Z,6.90
2019-01-13T21:45:18.385Z,8.10
2019-01-13T21:47:47.376Z,6.80
2019-01-13T21:50:44.141Z,7.90
2019-01-13T21:53:13.909Z,8.00
2019-01-13T21:55:42.849Z,7.90
2019-01-13T21:58:37.594Z,6.30
2019-01-13T22:01:08.263Z,8.00
2019-01-13T22:03:38.090Z,7.70
2019-01-13T22:06:14.543Z,7.80
2019-01-13T22:08:43.434Z,7.50
2019-01-13T22:11:36.336Z,7.60
2019-01-13T22:14:08.816Z,7.80
2019-01-13T22:16:42.095Z,7.60
2019-01-13T22:19:11.170Z,7.70
2019-01-13T22:21:40.264Z,7.80
2019-01-13T22:24:52.475Z,7.60
2019-01-13T22:27:25.710Z,7.80
2019-01-13T22:29:59.262Z,7.90
2019-01-13T22:32:38.182Z,7.90
2019-01-13T22:35:07.133Z,7.90
2019-01-13T22:38:06.809Z,7.80
2019-01-13T22:40:35.966Z,8.00
2019-01-13T22:43:04.955Z,8.10
2019-01-13T22:46:04.410Z,8.00
2019-01-13T22:48:33.415Z,7.90
2019-01-13T22:51:04.483Z,7.70
2019-01-13T22:53:34.662Z,7.70
2019-01-13T22:56:03.640Z,7.70
2019-01-13T22:59:08.986Z,7.70
2019-01-13T23:01:39.015Z,7.80
2019-01-13T23:04:08.065Z,8.00
2019-01-13T23:07:07.160Z,7.90
2019-01-13T23:09:36.109Z,8.00
2019-01-13T23:12:05.994Z,8.20
2019-01-13T23:14:36.038Z,8.20
2019-01-13T23:17:05.024Z,8.10
2019-01-13T23:19:34.031Z,7.90
2019-01-13T23:22:11.916Z,7.80
2019-01-13T23:24:41.401Z,7.80
2019-01-13T23:28:00.829Z,7.50
2019-01-13T23:30:31.133Z,8.20
2019-01-13T23:33:00.343Z,8.10
2019-01-13T23:36:02.926Z,7.80
2019-01-13T23:38:33.320Z,7.80
2019-01-13T23:41:02.295Z,7.50
2019-01-13T23:43:41.166Z,7.70
2019-01-13T23:46:19.257Z,7.90
2019-01-13T23:48:49.109Z,7.90
2019-01-13T23:51:20.864Z,8.00
2019-01-13T23:53:49.818Z,8.00
2019-01-13T23:56:18.829Z,7.90
2019-01-13T23:58:50.520Z,8.00
